createdAt,value
2022-07-26T05:02:19.698Z,2.60
2022-07-26T05:04:46.317Z,3.00
2022-07-26T05:07:12.952Z,2.58
2022-07-26T05:09:39.569Z,2.70
2022-07-26T05:12:06.545Z,2.78
2022-07-26T05:14:34.130Z,2.80
2022-07-26T05:17:00.792Z,3.30
2022-07-26T05:19:35.799Z,2.72
2022-07-26T05:22:02.429Z,3.75
2022-07-26T05:24:29.019Z,3.15
2022-07-26T05:26:58.613Z,3.75
2022-07-26T05:29:25.424Z,3.72
2022-07-26T05:31:51.980Z,2.70
2022-07-26T05:34:18.564Z,3.05
2022-07-26T05:36:45.769Z,3.03
2022-07-26T05:39:15.951Z,3.65
2022-07-26T05:41:42.930Z,2.50
2022-07-26T05:44:10.635Z,3.45
2022-07-26T05:46:37.766Z,3.20
2022-07-26T05:49:07.673Z,3.15
2022-07-26T05:51:34.419Z,4.90
2022-07-26T05:54:01.037Z,3.05
2022-07-26T05:56:27.803Z,3.60
2022-07-26T05:58:54.474Z,3.08
2022-07-26T06:01:21.836Z,3.70
2022-07-26T06:03:51.060Z,3.45
2022-07-26T06:06:17.753Z,3.95
2022-07-26T06:08:44.352Z,3.70
2022-07-26T06:11:11.115Z,4.28
2022-07-26T06:13:37.757Z,3.85
2022-07-26T06:16:04.832Z,4.40
2022-07-26T06:18:31.512Z,4.00
2022-07-26T06:21:02.528Z,4.10
2022-07-26T06:23:33.832Z,5.03
2022-07-26T06:26:02.755Z,4.25
2022-07-26T06:28:29.429Z,4.72
2022-07-26T06:30:56.213Z,5.35
2022-07-26T06:33:22.812Z,4.47
2022-07-26T06:35:49.507Z,4.63
2022-07-26T06:38:16.170Z,5.25
2022-07-26T06:40:42.824Z,5.40
2022-07-26T06:43:09.441Z,4.68
2022-07-26T06:45:36.261Z,5.93
2022-07-26T06:48:03.213Z,5.05
2022-07-26T06:50:30.140Z,3.90
2022-07-26T06:52:56.983Z,4.97
2022-07-26T06:55:23.756Z,4.63
2022-07-26T06:57:50.728Z,4.50
2022-07-26T07:00:18.100Z,4.93
2022-07-26T07:02:44.979Z,5.57
2022-07-26T07:05:12.005Z,5.57
2022-07-26T07:07:38.851Z,5.18
2022-07-26T07:10:06.669Z,5.13
2022-07-26T07:12:33.942Z,5.20
2022-07-26T07:15:00.936Z,5.90
2022-07-26T07:17:27.729Z,6.25
2022-07-26T07:19:54.393Z,5.18
2022-07-26T07:22:21.233Z,4.95
2022-07-26T07:24:48.072Z,4.88
2022-07-26T07:27:24.391Z,4.45
2022-07-26T07:29:55.517Z,4.60
2022-07-26T07:32:22.914Z,4.32
2022-07-26T07:34:51.410Z,3.40
2022-07-26T07:37:20.292Z,3.00
2022-07-26T07:39:48.801Z,3.67
2022-07-26T07:42:18.563Z,3.67
2022-07-26T07:44:45.283Z,3.28
2022-07-26T07:47:12.077Z,3.95
2022-07-26T07:49:38.881Z,3.53
2022-07-26T07:52:05.804Z,3.67
2022-07-26T07:54:32.427Z,3.88
2022-07-26T07:56:59.173Z,3.38
2022-07-26T07:59:25.762Z,4.13
2022-07-26T08:01:52.528Z,4.15
2022-07-26T08:04:19.324Z,3.60
2022-07-26T08:06:50.166Z,4.07
2022-07-26T08:09:18.939Z,3.72
2022-07-26T08:11:45.763Z,3.63
2022-07-26T08:14:18.886Z,4.28
2022-07-26T08:16:45.574Z,4.20
2022-07-26T08:19:12.566Z,3.85
2022-07-26T08:21:39.493Z,3.58
2022-07-26T08:24:06.962Z,4.05
2022-07-26T08:26:33.515Z,4.22
2022-07-26T08:29:00.612Z,3.95
2022-07-26T08:31:30.650Z,4.00
2022-07-26T08:33:57.612Z,3.65
2022-07-26T08:36:28.200Z,4.63
2022-07-26T08:38:58.489Z,3.45
2022-07-26T08:41:25.077Z,3.92
2022-07-26T08:43:53.762Z,2.90
2022-07-26T08:46:27.327Z,2.70
2022-07-26T08:48:56.378Z,3.42
2022-07-26T08:51:24.790Z,3.38
2022-07-26T08:54:02.265Z,3.65
2022-07-26T08:56:33.438Z,3.55
2022-07-26T08:59:03.615Z,3.28
2022-07-26T09:01:30.271Z,3.33
2022-07-26T09:03:56.888Z,2.97
2022-07-26T09:06:28.063Z,3.42
2022-07-26T09:09:10.863Z,2.95
2022-07-26T09:11:37.856Z,2.97
2022-07-26T09:14:06.077Z,2.50
2022-07-26T09:16:38.663Z,2.30
2022-07-26T09:19:21.360Z,2.78
2022-07-26T09:21:48.187Z,3.20
2022-07-26T09:24:43.259Z,3.50
2022-07-26T09:27:13.466Z,2.72
2022-07-26T09:29:47.810Z,3.17
2022-07-26T09:32:26.714Z,2.72
2022-07-26T09:34:58.719Z,1.58
2022-07-26T09:37:40.463Z,1.85
2022-07-26T09:40:09.838Z,1.33
2022-07-26T09:42:37.187Z,1.38
2022-07-26T09:45:16.441Z,1.55
2022-07-26T09:47:43.203Z,1.90
2022-07-26T09:50:16.376Z,1.85
2022-07-26T09:53:09.714Z,1.75
2022-07-26T09:55:57.436Z,2.08
2022-07-26T09:58:24.731Z,2.00
2022-07-26T10:00:51.380Z,2.00
2022-07-26T10:03:18.081Z,2.40
2022-07-26T10:05:44.879Z,2.35
2022-07-26T10:08:13.178Z,2.47
2022-07-26T10:10:47.954Z,2.40
2022-07-26T10:13:15.090Z,3.45
2022-07-26T10:15:46.782Z,2.90
2022-07-26T10:18:39.193Z,3.38
2022-07-26T10:21:25.554Z,3.20
2022-07-26T10:23:52.173Z,3.63
2022-07-26T10:26:36.424Z,3.70
2022-07-26T10:29:18.065Z,4.07
2022-07-26T10:32:00.408Z,3.95
2022-07-26T10:34:30.086Z,4.90
2022-07-26T10:39:27.481Z,4.57
2022-07-26T10:42:00.441Z,5.22
2022-07-26T10:44:34.985Z,5.63
2022-07-26T10:47:07.774Z,5.65
2022-07-26T10:49:41.869Z,5.53
2022-07-26T10:52:20.391Z,6.70
2022-07-26T10:54:59.441Z,5.30
2022-07-26T10:57:30.605Z,6.10
2022-07-26T10:59:58.096Z,5.85
2022-07-26T11:02:32.390Z,5.63
2022-07-26T11:05:15.015Z,5.65
2022-07-26T11:08:10.949Z,2.85
2022-07-26T11:10:46.600Z,2.63
2022-07-26T11:13:23.577Z,2.33
2022-07-26T11:15:54.213Z,2.30
2022-07-26T11:18:25.032Z,2.35
2022-07-26T11:20:54.550Z,2.20
2022-07-26T11:23:42.429Z,1.83
2022-07-26T11:26:11.965Z,3.55
2022-07-26T11:28:57.047Z,2.70
2022-07-26T11:31:50.627Z,2.55
2022-07-26T11:34:23.507Z,3.85
2022-07-26T11:36:53.095Z,3.65
2022-07-26T11:41:59.948Z,5.30
2022-07-26T11:44:27.314Z,4.38
2022-07-26T11:46:54.734Z,3.83
2022-07-26T11:49:41.490Z,4.45
2022-07-26T11:52:12.195Z,3.78
2022-07-26T11:54:50.782Z,3.40
2022-07-26T11:57:18.737Z,3.40
2022-07-26T11:59:47.769Z,3.40
2022-07-26T12:02:15.658Z,3.30
2022-07-26T12:04:43.926Z,3.30
2022-07-26T12:07:16.800Z,2.72
2022-07-26T12:09:47.671Z,3.10
2022-07-26T12:12:22.084Z,3.30
2022-07-26T12:15:00.549Z,3.20
2022-07-26T12:17:34.883Z,3.47
2022-07-26T12:20:17.671Z,3.78
2022-07-26T12:22:55.323Z,3.70
2022-07-26T12:25:26.453Z,3.28
2022-07-26T12:27:53.242Z,3.20
2022-07-26T12:30:19.994Z,3.25
2022-07-26T12:32:55.267Z,2.60
2022-07-26T12:35:32.138Z,3.45
2022-07-26T12:37:59.466Z,4.38
2022-07-26T12:40:30.930Z,4.25
2022-07-26T12:43:02.009Z,4.25
2022-07-26T12:45:31.277Z,4.38
2022-07-26T12:47:59.497Z,3.67
2022-07-26T12:50:28.207Z,4.78
2022-07-26T12:53:06.662Z,4.67
2022-07-26T12:55:34.040Z,4.10
2022-07-26T12:58:00.836Z,5.18
2022-07-26T13:00:29.802Z,4.32
2022-07-26T13:02:57.399Z,4.10
2022-07-26T13:05:24.192Z,5.40
2022-07-26T13:07:52.263Z,5.30
2022-07-26T13:10:35.957Z,4.82
2022-07-26T13:13:03.932Z,5.30
2022-07-26T13:15:37.070Z,4.18
2022-07-26T13:18:06.545Z,5.85
2022-07-26T13:20:33.179Z,5.27
2022-07-26T13:22:59.869Z,5.13
2022-07-26T13:25:30.709Z,5.10
2022-07-26T13:28:06.383Z,3.78
2022-07-26T13:30:33.126Z,3.97
2022-07-26T13:32:59.819Z,3.15
2022-07-26T13:35:26.464Z,3.33
2022-07-26T13:37:53.112Z,2.35
2022-07-26T13:40:19.731Z,2.00
2022-07-26T13:42:47.220Z,2.55
2022-07-26T13:45:13.830Z,2.78
2022-07-26T13:47:40.520Z,2.50
2022-07-26T13:50:07.758Z,2.67
2022-07-26T13:52:34.607Z,2.75
2022-07-26T13:55:01.231Z,2.88
2022-07-26T13:57:49.085Z,2.58
2022-07-26T14:00:15.214Z,3.00
2022-07-26T14:02:41.892Z,3.10
2022-07-26T14:05:09.257Z,3.25
2022-07-26T14:07:35.889Z,2.90
2022-07-26T14:10:02.699Z,2.65
2022-07-26T14:12:29.376Z,3.75
2022-07-26T14:14:56.053Z,3.25
2022-07-26T14:17:22.724Z,2.83
2022-07-26T14:19:49.353Z,3.60
2022-07-26T14:22:16.022Z,3.47
2022-07-26T14:24:42.690Z,3.50
2022-07-26T14:27:09.305Z,3.65
2022-07-26T14:29:37.473Z,4.65
2022-07-26T14:32:04.479Z,4.43
2022-07-26T14:34:31.204Z,4.82
2022-07-26T14:36:57.825Z,3.83
2022-07-26T14:39:24.468Z,4.07
2022-07-26T14:41:51.047Z,3.72
2022-07-26T14:44:17.708Z,3.40
2022-07-26T14:46:46.274Z,4.15
2022-07-26T14:49:13.336Z,4.18
2022-07-26T14:51:40.139Z,4.78
2022-07-26T14:54:07.039Z,5.40
2022-07-26T14:59:02.964Z,4.25
2022-07-26T15:01:30.001Z,4.05
2022-07-26T15:03:57.072Z,4.22
2022-07-26T15:06:23.723Z,3.88
2022-07-26T15:08:50.445Z,3.30
2022-07-26T15:11:17.350Z,4.20
2022-07-26T15:13:44.587Z,4.45
2022-07-26T15:16:13.184Z,4.15
2022-07-26T15:18:39.965Z,3.53
2022-07-26T15:21:06.699Z,4.15
2022-07-26T15:23:34.820Z,3.95
2022-07-26T15:26:02.031Z,3.97
2022-07-26T15:28:28.617Z,5.00
2022-07-26T15:30:56.230Z,3.85
2022-07-26T15:33:22.928Z,4.60
2022-07-26T15:35:50.682Z,4.57
2022-07-26T15:38:17.410Z,4.60
2022-07-26T15:40:44.293Z,4.50
2022-07-26T15:43:10.873Z,4.80
2022-07-26T15:45:40.891Z,4.65
2022-07-26T15:48:17.077Z,4.45
2022-07-26T15:50:49.321Z,4.38
2022-07-26T15:53:16.677Z,4.70
2022-07-26T15:55:43.271Z,4.55
2022-07-26T15:58:09.913Z,4.03
2022-07-26T16:00:36.600Z,3.60
2022-07-26T16:03:03.403Z,3.30
2022-07-26T16:05:30.315Z,3.55
2022-07-26T16:07:56.998Z,4.05
2022-07-26T16:10:23.781Z,3.47
2022-07-26T16:12:50.400Z,3.33
2022-07-26T16:15:16.966Z,2.42
2022-07-26T16:17:43.624Z,3.40
2022-07-26T16:20:10.758Z,3.13
2022-07-26T16:22:42.020Z,3.22
2022-07-26T16:25:09.704Z,3.58
2022-07-26T16:27:36.347Z,3.05
2022-07-26T16:30:03.353Z,2.65
2022-07-26T16:32:29.972Z,2.47
2022-07-26T16:34:56.662Z,3.10
2022-07-26T16:37:23.462Z,3.30
2022-07-26T16:39:50.139Z,3.92
2022-07-26T16:42:16.834Z,3.97
2022-07-26T16:44:43.424Z,3.92
2022-07-26T16:47:10.101Z,3.58
2022-07-26T16:49:36.846Z,2.80
2022-07-26T16:52:03.707Z,3.60
2022-07-26T16:54:31.005Z,3.70
2022-07-26T16:56:57.589Z,4.35
2022-07-26T16:59:24.335Z,4.57
2022-07-26T17:01:51.056Z,4.20
2022-07-26T17:04:18.185Z,5.30
2022-07-26T17:07:01.653Z,5.57
2022-07-26T17:09:31.413Z,5.72
2022-07-26T17:11:59.750Z,5.20
2022-07-26T17:14:29.519Z,5.97
2022-07-26T17:16:57.806Z,13.52
2022-07-26T17:19:24.882Z,13.93
2022-07-26T17:21:51.530Z,9.80
2022-07-26T17:24:18.207Z,9.13
2022-07-26T17:26:47.477Z,6.75
2022-07-26T17:29:14.546Z,9.55
2022-07-26T17:31:41.505Z,8.43
2022-07-26T17:34:08.373Z,6.43
2022-07-26T17:36:35.882Z,4.55
2022-07-26T17:39:04.221Z,6.77
2022-07-26T17:41:32.801Z,7.95
2022-07-26T17:44:02.958Z,6.63
2022-07-26T17:46:32.714Z,5.03
2022-07-26T17:48:59.923Z,3.65
2022-07-26T17:51:26.723Z,2.80
2022-07-26T17:53:53.517Z,2.30
2022-07-26T17:56:20.208Z,2.85
2022-07-26T17:58:46.826Z,2.53
2022-07-26T18:01:13.545Z,2.90
2022-07-26T18:03:40.165Z,2.53
2022-07-26T18:06:06.845Z,2.55
2022-07-26T18:08:33.785Z,1.98
2022-07-26T18:11:02.714Z,2.67
2022-07-26T18:13:29.465Z,2.58
2022-07-26T18:15:57.003Z,1.88
2022-07-26T18:18:23.784Z,2.50
2022-07-26T18:20:50.528Z,2.63
2022-07-26T18:23:17.153Z,2.72
2022-07-26T18:25:43.831Z,2.40
2022-07-26T18:28:10.877Z,3.17
2022-07-26T18:30:43.153Z,2.70
2022-07-26T18:33:11.922Z,3.15
2022-07-26T18:35:38.945Z,2.77
2022-07-26T18:38:06.729Z,3.03
2022-07-26T18:40:34.011Z,3.55
2022-07-26T18:43:00.862Z,2.67
2022-07-26T18:45:28.001Z,2.50
2022-07-26T18:47:54.654Z,2.35
2022-07-26T18:50:21.734Z,3.10
2022-07-26T18:52:49.030Z,2.42
2022-07-26T18:55:15.710Z,2.15
2022-07-26T18:57:43.997Z,2.70
2022-07-26T19:00:14.256Z,2.75
2022-07-26T19:02:41.552Z,2.53
2022-07-26T19:05:08.630Z,3.08
2022-07-26T19:07:37.526Z,2.50
2022-07-26T19:10:06.131Z,2.72
2022-07-26T19:12:32.866Z,2.63
2022-07-26T19:15:00.011Z,2.90
2022-07-26T19:17:30.352Z,2.83
2022-07-26T19:20:00.166Z,2.50
2022-07-26T19:22:27.002Z,2.25
2022-07-26T19:24:53.618Z,2.70
2022-07-26T19:27:20.209Z,2.47
2022-07-26T19:29:46.834Z,2.60
2022-07-26T19:32:13.443Z,2.58
2022-07-26T19:34:40.501Z,2.90
2022-07-26T19:37:07.282Z,2.63
2022-07-26T19:39:33.906Z,2.30
2022-07-26T19:42:00.511Z,2.30
2022-07-26T19:44:27.142Z,2.80
2022-07-26T19:46:57.545Z,2.38
2022-07-26T19:49:24.965Z,2.45
2022-07-26T19:51:51.560Z,2.85
2022-07-26T19:54:18.284Z,2.40
2022-07-26T19:56:44.882Z,2.80
2022-07-26T19:59:11.821Z,2.88
2022-07-26T20:01:38.798Z,2.30
2022-07-26T20:04:05.629Z,3.10
2022-07-26T20:06:32.304Z,2.33
2022-07-26T20:08:58.932Z,2.45
2022-07-26T20:11:26.318Z,2.40
2022-07-26T20:13:53.052Z,2.63
2022-07-26T20:16:19.715Z,2.03
2022-07-26T20:18:46.342Z,2.42
2022-07-26T20:21:13.007Z,2.00
2022-07-26T20:23:39.699Z,2.15
2022-07-26T20:26:06.530Z,2.65
2022-07-26T20:28:33.237Z,2.17
